Time;durP1;ratioP1;P1;durP2;ratioP2;P2;SDS_P1;SDS_P2;PMS_P1;PMS_P2;Temp;Humidity;BMP_temperature;BMP_pressure;BME280_temperature;BME280_humidity;BME280_pressure;Samples;Min_cycle;Max_cycle;Signal;HPM_P1;HPM_P2
2023/04/09 00:01:04;;;;;;;13.95;10.80;;;14.40;74.10;;;;;;5035862;28;20033;-84
2023/04/09 00:03:30;;;;;;;11.57;9.75;;;14.30;74.10;;;;;;5019482;28;20116;-83
2023/04/09 00:05:59;;;;;;;13.65;10.70;;;14.30;74.10;;;;;;5018150;28;20048;-82
2023/04/09 00:08:25;;;;;;;13.95;11.07;;;14.30;74.10;;;;;;5019348;28;20083;-85
2023/04/09 00:10:55;;;;;;;13.20;11.05;;;14.30;74.80;;;;;;5035210;28;20025;-84
2023/04/09 00:13:21;;;;;;;13.50;10.73;;;14.30;74.20;;;;;;5036379;28;20034;-84
2023/04/09 00:15:47;;;;;;;14.23;10.80;;;14.20;74.10;;;;;;5020113;28;20026;-85
2023/04/09 00:18:18;;;;;;;14.10;11.07;;;14.20;74.10;;;;;;5036078;28;20022;-83
2023/04/09 00:20:44;;;;;;;12.57;10.43;;;14.20;74.10;;;;;;5019048;28;20098;-84
2023/04/09 00:23:10;;;;;;;13.68;10.93;;;14.20;74.20;;;;;;5019102;28;20037;-83
2023/04/09 00:25:36;;;;;;;12.02;9.85;;;14.20;74.20;;;;;;5019055;28;20030;-86
2023/04/09 00:28:02;;;;;;;12.65;10.20;;;14.20;74.20;;;;;;5003050;28;20025;-82
2023/04/09 00:30:29;;;;;;;14.65;11.48;;;14.20;74.20;;;;;;5035505;28;20033;-87
2023/04/09 00:32:55;;;;;;;13.65;11.32;;;14.20;74.20;;;;;;5035621;28;20053;-83
2023/04/09 00:35:21;;;;;;;14.10;11.70;;;14.10;74.20;;;;;;5019022;28;20120;-83
2023/04/09 00:37:47;;;;;;;13.20;10.63;;;14.20;74.20;;;;;;5035431;28;20056;-83
2023/04/09 00:40:13;;;;;;;13.27;11.20;;;14.10;74.20;;;;;;5018917;28;20493;-82
2023/04/09 00:42:39;;;;;;;12.30;9.63;;;14.10;74.20;;;;;;5018612;28;20064;-84
2023/04/09 00:45:05;;;;;;;12.98;10.85;;;14.10;74.20;;;;;;5018904;28;20021;-83
2023/04/09 00:47:35;;;;;;;13.77;10.27;;;14.10;74.20;;;;;;5018659;28;20025;-82
2023/04/09 00:50:02;;;;;;;14.13;11.18;;;14.10;74.30;;;;;;5018625;28;20124;-85
2023/04/09 00:52:31;;;;;;;13.48;10.68;;;14.10;74.30;;;;;;5034902;28;20026;-83
2023/04/09 00:54:59;;;;;;;13.27;10.63;;;14.00;74.20;;;;;;5019504;28;20405;-84
2023/04/09 00:57:32;;;;;;;12.63;10.30;;;14.00;74.30;;;;;;5034891;28;20109;-83
2023/04/09 00:59:58;;;;;;;12.05;9.50;;;14.00;74.30;;;;;;5035898;28;20050;-84
2023/04/09 01:02:24;;;;;;;14.82;11.32;;;14.00;74.30;;;;;;5035120;28;20359;-84
2023/04/09 01:04:50;;;;;;;14.77;11.93;;;14.00;74.30;;;;;;5035021;28;20030;-82
2023/04/09 01:07:34;;;;;;;13.13;9.93;;;14.00;74.90;;;;;;5034785;28;20047;-82
2023/04/09 01:10:12;;;;;;;13.15;10.52;;;14.00;74.30;;;;;;5035010;28;20025;-83
2023/04/09 01:12:51;;;;;;;12.60;9.57;;;13.90;74.30;;;;;;5017799;28;20033;-84
2023/04/09 01:15:25;;;;;;;12.73;10.60;;;13.90;74.30;;;;;;5034746;28;20029;-84
2023/04/09 01:18:08;;;;;;;13.13;10.60;;;13.90;74.30;;;;;;5017974;28;20112;-83
2023/04/09 01:20:40;;;;;;;13.40;9.93;;;13.90;74.40;;;;;;5034407;28;20033;-86
2023/04/09 01:23:09;;;;;;;12.70;10.02;;;13.90;74.40;;;;;;5035124;28;20116;-83
2023/04/09 01:25:52;;;;;;;13.65;10.55;;;13.90;74.40;;;;;;5035194;28;20021;-82
2023/04/09 01:28:26;;;;;;;13.40;9.95;;;13.90;74.40;;;;;;5034528;28;20034;-83
2023/04/09 01:30:59;;;;;;;13.55;10.82;;;13.80;74.40;;;;;;5035297;28;20037;-81
2023/04/09 01:33:28;;;;;;;11.23;9.07;;;13.80;74.40;;;;;;5035098;28;20049;-83
2023/04/09 01:35:55;;;;;;;12.98;10.05;;;13.80;74.40;;;;;;5018088;28;20090;-84
2023/04/09 01:38:22;;;;;;;14.18;11.00;;;13.80;74.40;;;;;;5017904;28;20037;-83
2023/04/09 01:40:52;;;;;;;13.27;10.27;;;13.80;74.40;;;;;;5001500;28;20034;-82
2023/04/09 01:43:19;;;;;;;13.50;10.13;;;13.80;74.40;;;;;;5019174;28;20030;-83
2023/04/09 01:45:46;;;;;;;13.88;10.88;;;13.80;74.50;;;;;;5018690;28;20570;-85
2023/04/09 01:48:15;;;;;;;12.00;10.38;;;13.70;74.40;;;;;;5018475;28;20045;-84
2023/04/09 01:50:42;;;;;;;13.27;10.68;;;13.80;74.50;;;;;;5018165;28;20026;-86
2023/04/09 01:53:08;;;;;;;13.88;10.82;;;13.80;74.50;;;;;;5017790;28;20470;-86
2023/04/09 01:55:34;;;;;;;12.98;10.85;;;13.80;74.50;;;;;;5018125;28;20040;-83
2023/04/09 01:58:00;;;;;;;13.63;10.90;;;13.80;74.50;;;;;;5002558;28;20045;-84
2023/04/09 02:00:34;;;;;;;13.93;11.18;;;13.70;74.40;;;;;;5002143;28;20052;-83
2023/04/09 02:03:03;;;;;;;13.77;10.43;;;13.70;74.40;;;;;;5034121;28;20029;-83
2023/04/09 02:05:35;;;;;;;13.35;10.75;;;13.70;74.50;;;;;;5034075;28;20021;-86
2023/04/09 02:08:02;;;;;;;12.65;10.32;;;13.70;74.40;;;;;;5017680;28;20048;-82
2023/04/09 02:10:32;;;;;;;13.73;10.75;;;13.70;74.40;;;;;;5017177;28;20021;-86
2023/04/09 02:13:00;;;;;;;13.18;10.55;;;13.70;74.50;;;;;;5033721;28;20049;-82
2023/04/09 02:15:29;;;;;;;13.98;11.02;;;13.70;74.50;;;;;;5033972;28;20120;-83
2023/04/09 02:17:55;;;;;;;12.82;10.25;;;13.70;74.50;;;;;;5017515;28;20481;-82
2023/04/09 02:20:21;;;;;;;13.80;10.60;;;13.60;74.50;;;;;;5034300;28;20037;-83
2023/04/09 02:22:48;;;;;;;13.85;10.85;;;13.60;74.50;;;;;;5016686;28;20026;-84
2023/04/09 02:25:14;;;;;;;14.07;10.80;;;13.60;74.50;;;;;;5033091;28;20113;-82
2023/04/09 02:27:40;;;;;;;13.80;10.90;;;13.60;74.50;;;;;;5000529;28;20034;-84
2023/04/09 02:30:07;;;;;;;12.93;10.15;;;13.60;74.50;;;;;;5017359;28;20038;-82
2023/04/09 02:32:33;;;;;;;11.82;9.77;;;13.60;74.50;;;;;;5017208;28;20128;-84
2023/04/09 02:34:59;;;;;;;12.35;10.00;;;13.60;74.50;;;;;;5034402;28;20080;-82
2023/04/09 02:37:25;;;;;;;11.95;9.65;;;13.60;74.60;;;;;;5017268;28;20037;-87
2023/04/09 02:39:53;;;;;;;12.75;10.38;;;13.60;74.60;;;;;;5033517;28;20060;-84
2023/04/09 02:42:19;;;;;;;13.45;10.48;;;13.60;74.60;;;;;;5000592;28;20026;-82
2023/04/09 02:44:45;;;;;;;13.07;10.45;;;13.60;74.60;;;;;;5016861;28;20025;-83
2023/04/09 02:47:12;;;;;;;12.05;9.95;;;13.60;74.60;;;;;;5016743;28;20147;-83
2023/04/09 02:49:38;;;;;;;12.75;10.35;;;13.60;74.60;;;;;;5016959;28;20026;-83
2023/04/09 02:52:04;;;;;;;13.43;10.27;;;13.50;74.60;;;;;;5033984;28;20561;-83
2023/04/09 02:54:30;;;;;;;13.10;10.30;;;13.60;74.60;;;;;;5034838;28;20118;-83
2023/04/09 02:56:56;;;;;;;12.32;9.70;;;13.50;74.60;;;;;;5000811;28;20103;-84
2023/04/09 02:59:22;;;;;;;13.13;10.55;;;13.50;74.70;;;;;;5034993;28;20101;-83
2023/04/09 03:01:48;;;;;;;12.32;9.85;;;13.50;74.70;;;;;;5001396;28;20044;-84
2023/04/09 03:04:14;;;;;;;11.75;9.52;;;13.50;74.70;;;;;;5001295;28;20037;-84
2023/04/09 03:06:40;;;;;;;12.80;9.82;;;13.50;74.70;;;;;;5000955;28;20112;-82
2023/04/09 03:09:07;;;;;;;12.70;10.18;;;13.50;74.70;;;;;;5016964;28;20022;-83
2023/04/09 03:11:34;;;;;;;13.43;10.25;;;13.50;74.70;;;;;;5033547;28;20030;-81
2023/04/09 03:14:00;;;;;;;13.52;10.30;;;13.50;74.70;;;;;;5000327;28;20021;-82
2023/04/09 03:16:26;;;;;;;12.63;9.77;;;13.50;74.70;;;;;;5017492;28;20466;-84
2023/04/09 03:18:51;;;;;;;12.70;9.85;;;13.40;74.70;;;;;;5016958;28;20025;-82
2023/04/09 03:21:18;;;;;;;13.50;10.40;;;13.40;74.70;;;;;;5034177;28;20462;-82
2023/04/09 03:23:51;;;;;;;12.82;9.65;;;13.40;74.70;;;;;;5017870;28;20601;-83
2023/04/09 03:26:17;;;;;;;12.90;10.07;;;13.40;74.70;;;;;;5017242;28;20025;-83
2023/04/09 03:28:48;;;;;;;12.75;9.68;;;13.40;74.80;;;;;;5033447;28;20021;-85
2023/04/09 03:31:18;;;;;;;12.60;10.20;;;13.40;74.70;;;;;;5016608;28;20057;-83
2023/04/09 03:33:45;;;;;;;12.82;9.75;;;13.40;74.80;;;;;;5000921;28;20050;-83
2023/04/09 03:36:13;;;;;;;12.57;9.82;;;13.40;74.80;;;;;;5016862;28;20029;-82
2023/04/09 03:39:02;;;;;;;13.07;9.90;;;13.40;74.80;;;;;;5019329;28;20132;-83
2023/04/09 03:41:35;;;;;;;13.27;10.23;;;13.30;74.80;;;;;;5035498;28;20075;-85
2023/04/09 03:44:04;;;;;;;12.23;9.82;;;13.30;75.10;;;;;;5036753;28;20065;-85
2023/04/09 03:46:37;;;;;;;12.35;10.10;;;13.30;74.80;;;;;;5006663;28;20477;-84
2023/04/09 03:49:04;;;;;;;11.07;9.10;;;13.30;74.80;;;;;;5020121;28;20402;-83
2023/04/09 03:51:36;;;;;;;12.55;9.93;;;13.30;74.80;;;;;;5036835;28;20084;-83
2023/04/09 03:54:01;;;;;;;12.50;10.27;;;13.30;74.80;;;;;;5019506;28;20037;-82
2023/04/09 03:56:27;;;;;;;13.38;10.38;;;13.30;74.90;;;;;;5036416;28;20064;-81
2023/04/09 03:58:56;;;;;;;13.38;10.18;;;13.30;74.80;;;;;;5036600;28;20029;-83
2023/04/09 04:01:31;;;;;;;13.40;10.05;;;13.30;74.80;;;;;;5036885;28;20030;-82
2023/04/09 04:03:59;;;;;;;13.02;10.23;;;13.30;74.90;;;;;;5037124;28;20029;-82
2023/04/09 04:06:34;;;;;;;13.52;10.35;;;13.30;74.90;;;;;;5021946;28;20078;-83
2023/04/09 04:09:23;;;;;;;12.38;10.05;;;13.20;74.90;;;;;;5010311;28;20033;-84
2023/04/09 04:12:04;;;;;;;12.48;9.98;;;13.20;74.90;;;;;;5021452;28;20041;-83
2023/04/09 04:14:44;;;;;;;12.15;10.18;;;13.20;74.90;;;;;;5022451;28;20544;-83
2023/04/09 04:17:20;;;;;;;12.20;10.02;;;13.20;74.90;;;;;;5036855;28;20037;-83
2023/04/09 04:19:47;;;;;;;12.95;10.60;;;13.20;74.90;;;;;;5020536;28;20033;-83
2023/04/09 04:22:13;;;;;;;12.35;9.88;;;13.20;74.90;;;;;;5019951;28;20026;-84
2023/04/09 04:24:43;;;;;;;13.55;9.98;;;13.20;75.00;;;;;;5036092;28;20098;-84
2023/04/09 04:27:10;;;;;;;12.82;10.27;;;13.20;75.00;;;;;;5019972;28;20044;-83
2023/04/09 04:29:41;;;;;;;11.98;9.52;;;13.20;75.60;;;;;;5004580;28;20026;-83
2023/04/09 04:32:21;;;;;;;12.85;9.82;;;13.20;75.00;;;;;;5021519;28;20530;-82
2023/04/09 04:34:49;;;;;;;13.63;10.15;;;13.10;75.00;;;;;;5003565;28;20056;-83
2023/04/09 04:37:22;;;;;;;11.35;9.65;;;13.20;75.00;;;;;;5036807;28;20116;-82
2023/04/09 04:39:49;;;;;;;13.07;10.40;;;13.20;75.10;;;;;;5003562;28;20033;-81
2023/04/09 04:42:19;;;;;;;12.60;10.25;;;13.10;75.10;;;;;;5019049;28;20060;-82
2023/04/09 04:44:48;;;;;;;12.23;9.25;;;13.10;75.10;;;;;;5019491;28;20033;-83
2023/04/09 04:47:37;;;;;;;12.77;9.38;;;13.10;75.00;;;;;;5035417;28;20029;-86
2023/04/09 04:50:04;;;;;;;12.60;10.02;;;13.10;75.00;;;;;;5003641;28;20108;-84
2023/04/09 04:52:39;;;;;;;12.70;9.73;;;13.00;75.00;;;;;;5005850;28;20531;-85
2023/04/09 04:55:06;;;;;;;11.65;9.73;;;13.10;75.00;;;;;;5004128;28;20041;-85
2023/04/09 04:57:32;;;;;;;12.88;10.55;;;13.10;75.10;;;;;;5020968;28;20101;-82
2023/04/09 04:59:59;;;;;;;12.13;9.80;;;13.10;75.10;;;;;;5020386;28;20029;-83
2023/04/09 05:02:26;;;;;;;13.57;11.20;;;13.00;75.00;;;;;;5020293;28;20036;-83
2023/04/09 05:05:11;;;;;;;13.80;10.75;;;13.00;75.00;;;;;;5039092;28;20064;-85
2023/04/09 05:07:44;;;;;;;14.35;11.07;;;13.00;75.00;;;;;;5036997;28;20025;-82
2023/04/09 05:10:10;;;;;;;12.48;9.63;;;13.00;75.00;;;;;;5004163;28;20030;-81
2023/04/09 05:12:40;;;;;;;15.45;11.43;;;13.00;75.00;;;;;;5004918;28;20029;-85
2023/04/09 05:15:07;;;;;;;15.13;10.90;;;13.00;75.10;;;;;;5020665;28;20195;-86
2023/04/09 05:17:35;;;;;;;13.98;10.98;;;13.00;75.10;;;;;;5004612;28;20050;-84
2023/04/09 05:20:01;;;;;;;13.57;10.73;;;13.00;75.10;;;;;;5003738;28;20095;-84
2023/04/09 05:22:38;;;;;;;13.60;10.10;;;12.90;75.00;;;;;;5022425;28;20021;-87
2023/04/09 05:25:06;;;;;;;14.18;11.23;;;12.90;75.00;;;;;;5020840;28;20040;-82
2023/04/09 05:27:35;;;;;;;13.30;10.00;;;12.90;75.00;;;;;;5020559;28;20048;-82
2023/04/09 05:30:07;;;;;;;14.10;10.38;;;12.90;75.00;;;;;;5035963;28;20163;-85
2023/04/09 05:32:36;;;;;;;12.85;10.30;;;12.80;75.00;;;;;;5036262;28;20045;-85
2023/04/09 05:35:04;;;;;;;13.02;9.40;;;12.90;75.10;;;;;;5002996;28;20041;-86
2023/04/09 05:37:31;;;;;;;13.27;10.50;;;12.90;75.10;;;;;;5034604;28;20459;-85
2023/04/09 05:39:57;;;;;;;13.88;10.40;;;12.80;75.00;;;;;;5000978;28;20033;-85
2023/04/09 05:42:23;;;;;;;13.52;10.05;;;12.80;75.00;;;;;;5033681;28;20052;-84
2023/04/09 05:44:57;;;;;;;13.23;10.05;;;12.80;75.00;;;;;;5002951;28;20192;-85
2023/04/09 05:47:25;;;;;;;13.30;10.38;;;12.70;75.00;;;;;;5017759;28;20147;-84
2023/04/09 05:49:59;;;;;;;12.55;9.77;;;12.70;75.00;;;;;;5034208;28;20021;-87
2023/04/09 05:52:26;;;;;;;13.63;10.15;;;12.80;75.00;;;;;;5017472;28;20112;-87
2023/04/09 05:54:55;;;;;;;11.75;9.25;;;12.70;75.00;;;;;;5033614;28;20033;-87
2023/04/09 05:57:29;;;;;;;13.38;10.27;;;12.70;75.00;;;;;;5018307;28;20128;-87
2023/04/09 05:59:58;;;;;;;11.75;9.48;;;12.70;75.00;;;;;;5033711;28;20029;-88
2023/04/09 06:02:24;;;;;;;13.93;10.07;;;12.60;74.90;;;;;;5017285;28;20036;-88
2023/04/09 06:04:50;;;;;;;13.07;10.65;;;12.60;75.00;;;;;;5001208;28;20037;-88
2023/04/09 06:07:16;;;;;;;12.32;9.93;;;12.60;75.00;;;;;;5001463;28;20032;-87
2023/04/09 06:09:45;;;;;;;12.68;10.05;;;12.60;75.00;;;;;;5033518;28;20038;-90
2023/04/09 06:12:12;;;;;;;12.52;9.80;;;12.60;75.00;;;;;;5033622;28;20029;-86
2023/04/09 06:14:38;;;;;;;13.18;10.27;;;12.60;75.00;;;;;;5032863;28;20033;-86
2023/04/09 06:17:04;;;;;;;12.48;9.52;;;12.50;75.00;;;;;;5016832;28;20025;-89
2023/04/09 06:19:30;;;;;;;12.80;9.50;;;12.50;75.00;;;;;;5017284;28;20025;-86
2023/04/09 06:21:56;;;;;;;12.98;10.02;;;12.50;75.00;;;;;;5016980;28;20501;-87
2023/04/09 06:24:22;;;;;;;12.73;9.45;;;12.50;75.00;;;;;;5000628;28;20037;-86
2023/04/09 06:26:48;;;;;;;13.02;9.73;;;12.50;75.00;;;;;;5016690;28;20022;-84
2023/04/09 06:29:14;;;;;;;13.02;9.73;;;12.50;75.00;;;;;;5033023;28;20370;-88
2023/04/09 06:31:40;;;;;;;12.38;9.80;;;12.50;75.10;;;;;;4999712;28;20026;-88
2023/04/09 06:34:06;;;;;;;13.10;9.52;;;12.40;75.00;;;;;;5015828;28;20041;-83
2023/04/09 06:36:33;;;;;;;13.13;9.80;;;12.40;75.00;;;;;;5032366;28;20025;-82
2023/04/09 06:38:59;;;;;;;12.75;9.98;;;12.40;75.10;;;;;;5032610;28;20037;-86
2023/04/09 06:41:25;;;;;;;14.50;10.10;;;12.40;75.00;;;;;;5031908;28;20029;-84
2023/04/09 06:43:51;;;;;;;13.32;9.80;;;12.40;75.00;;;;;;5016011;28;20037;-85
2023/04/09 06:46:19;;;;;;;12.60;9.88;;;12.40;75.00;;;;;;5015584;28;20029;-86
2023/04/09 06:48:45;;;;;;;12.60;9.95;;;12.30;75.00;;;;;;5015603;28;20057;-81
2023/04/09 06:51:11;;;;;;;12.93;9.90;;;12.30;75.00;;;;;;4999318;28;20038;-84
2023/04/09 06:53:38;;;;;;;12.25;9.45;;;12.30;75.00;;;;;;5032773;28;20032;-85
2023/04/09 06:56:04;;;;;;;13.55;10.20;;;12.30;75.10;;;;;;5015751;28;20121;-90
2023/04/09 06:58:30;;;;;;;13.88;10.18;;;12.30;75.10;;;;;;5033097;28;20067;-85
2023/04/09 07:00:56;;;;;;;13.70;9.57;;;12.30;75.10;;;;;;5015969;28;20113;-88
2023/04/09 07:03:22;;;;;;;12.73;9.57;;;12.30;75.10;;;;;;4999438;28;20041;-87
2023/04/09 07:05:48;;;;;;;12.82;9.35;;;12.20;75.00;;;;;;5015736;28;20021;-89
2023/04/09 07:08:14;;;;;;;12.32;9.32;;;12.20;75.00;;;;;;5033663;28;20038;-90
2023/04/09 07:10:40;;;;;;;13.38;10.40;;;12.20;75.10;;;;;;5016173;28;20029;-84
2023/04/09 07:13:06;;;;;;;14.20;9.93;;;12.20;75.10;;;;;;5032554;28;20029;-89
2023/04/09 07:15:34;;;;;;;13.35;9.98;;;12.20;75.10;;;;;;5000504;28;20041;-86
2023/04/09 07:18:00;;;;;;;12.80;9.80;;;12.20;75.10;;;;;;5036353;28;20025;-85
2023/04/09 07:20:26;;;;;;;12.70;9.75;;;12.20;75.10;;;;;;5036269;28;20057;-86
2023/04/09 07:22:52;;;;;;;12.80;10.02;;;12.20;75.10;;;;;;5019662;28;20022;-88
2023/04/09 07:25:18;;;;;;;13.70;10.15;;;12.20;75.10;;;;;;5019842;28;20029;-88
2023/04/09 07:27:44;;;;;;;14.07;10.68;;;12.10;75.10;;;;;;5036714;28;20040;-85
2023/04/09 07:30:10;;;;;;;12.75;9.75;;;12.20;75.10;;;;;;5019943;28;20116;-88
2023/04/09 07:32:36;;;;;;;12.98;10.43;;;12.20;75.10;;;;;;5019450;28;20053;-86
2023/04/09 07:35:04;;;;;;;12.65;9.75;;;12.10;75.10;;;;;;5036026;28;20029;-88
2023/04/09 07:37:30;;;;;;;13.48;10.45;;;12.10;75.10;;;;;;5019819;28;20045;-84
2023/04/09 07:39:56;;;;;;;13.45;9.70;;;12.10;75.10;;;;;;5036110;28;20389;-88
2023/04/09 07:42:22;;;;;;;12.93;9.73;;;12.10;75.10;;;;;;5019688;28;20036;-86
2023/04/09 07:44:48;;;;;;;13.55;9.85;;;12.10;75.20;;;;;;5035621;28;20478;-86
2023/04/09 07:47:14;;;;;;;13.57;10.32;;;12.10;75.20;;;;;;5019438;28;20044;-87
2023/04/09 07:49:40;;;;;;;12.88;9.27;;;12.10;75.20;;;;;;5019472;28;20064;-87
2023/04/09 07:52:07;;;;;;;13.05;10.25;;;12.10;75.20;;;;;;5002593;28;20107;-86
2023/04/09 07:54:34;;;;;;;12.73;10.27;;;12.10;75.20;;;;;;5035822;28;20035;-86
2023/04/09 07:57:00;;;;;;;13.68;10.02;;;12.10;75.20;;;;;;5019438;28;20048;-88
2023/04/09 07:59:26;;;;;;;12.82;10.25;;;12.10;75.20;;;;;;5035656;28;20435;-86
2023/04/09 08:01:52;;;;;;;12.30;9.75;;;12.10;75.30;;;;;;5019030;28;20053;-87
2023/04/09 08:04:31;;;;;;;13.68;10.23;;;12.10;75.30;;;;;;5019147;28;20083;-88
2023/04/09 08:06:57;;;;;;;14.48;10.02;;;12.10;75.30;;;;;;5020170;28;20470;-88
2023/04/09 08:09:23;;;;;;;11.63;9.20;;;12.10;75.30;;;;;;5018775;28;20029;-88
2023/04/09 08:11:49;;;;;;;14.00;10.18;;;12.10;75.30;;;;;;5034938;28;20060;-88
2023/04/09 08:14:16;;;;;;;12.85;9.80;;;12.10;75.20;;;;;;5002884;28;20037;-88
2023/04/09 08:16:44;;;;;;;13.60;9.13;;;12.10;75.20;;;;;;5034835;28;20033;-86
2023/04/09 08:19:14;;;;;;;12.48;9.65;;;12.10;75.20;;;;;;5019248;28;20025;-89
2023/04/09 08:21:43;;;;;;;13.18;9.85;;;12.10;75.20;;;;;;5019029;28;20133;-87
2023/04/09 08:24:10;;;;;;;12.80;10.00;;;12.10;75.20;;;;;;5035921;28;20068;-87
2023/04/09 08:26:39;;;;;;;12.57;9.27;;;12.10;75.30;;;;;;5034652;28;20040;-84
2023/04/09 08:29:06;;;;;;;12.73;9.65;;;12.00;75.30;;;;;;5018553;28;20022;-86
2023/04/09 08:31:32;;;;;;;12.65;9.52;;;12.10;75.30;;;;;;5019182;28;20038;-85
2023/04/09 08:33:57;;;;;;;13.32;9.32;;;12.10;75.30;;;;;;5018095;28;20060;-85
2023/04/09 08:36:24;;;;;;;12.57;9.48;;;12.10;75.20;;;;;;5034804;28;20032;-85
2023/04/09 08:38:51;;;;;;;11.95;9.88;;;12.10;75.20;;;;;;5017940;28;20029;-84
2023/04/09 08:41:23;;;;;;;13.00;9.52;;;12.10;75.10;;;;;;5002422;28;20462;-85
2023/04/09 08:43:51;;;;;;;12.30;9.00;;;12.20;75.10;;;;;;5018541;28;20034;-84
2023/04/09 08:46:18;;;;;;;12.52;9.57;;;12.20;75.10;;;;;;5018190;28;20013;-85
2023/04/09 08:48:45;;;;;;;11.82;9.52;;;12.20;75.00;;;;;;5018380;28;20408;-84
2023/04/09 08:51:15;;;;;;;12.57;10.35;;;12.20;75.00;;;;;;5034458;28;20037;-85
2023/04/09 08:54:01;;;;;;;12.70;9.77;;;12.30;75.00;;;;;;5035496;28;20026;-83
2023/04/09 08:56:28;;;;;;;11.60;8.63;;;12.30;75.00;;;;;;5017482;28;20038;-84
2023/04/09 08:58:54;;;;;;;11.88;9.13;;;12.40;74.90;;;;;;5034298;28;20431;-85
2023/04/09 09:01:38;;;;;;;11.15;9.10;;;12.40;74.80;;;;;;5034267;28;20040;-84
2023/04/09 09:04:08;;;;;;;10.80;8.50;;;12.50;74.80;;;;;;5018226;28;20030;-87
2023/04/09 09:06:37;;;;;;;11.30;8.68;;;12.50;74.60;;;;;;5018235;28;20141;-88
2023/04/09 09:09:06;;;;;;;12.15;8.80;;;12.60;74.60;;;;;;5019277;28;20060;-86
2023/04/09 09:11:37;;;;;;;11.45;8.43;;;12.60;74.50;;;;;;5035586;28;20041;-86
2023/04/09 09:14:11;;;;;;;11.13;8.65;;;12.70;74.40;;;;;;5034809;28;20033;-89
2023/04/09 09:16:41;;;;;;;11.68;9.30;;;12.70;74.30;;;;;;5034463;28;20057;-87
2023/04/09 09:19:09;;;;;;;11.05;8.32;;;12.70;74.20;;;;;;5034354;28;20032;-86
2023/04/09 09:21:35;;;;;;;13.07;9.60;;;12.80;74.10;;;;;;5017915;28;20120;-90
2023/04/09 09:24:15;;;;;;;11.82;8.88;;;12.90;74.10;;;;;;5017613;28;20449;-83
2023/04/09 09:26:41;;;;;;;12.38;9.40;;;12.90;74.10;;;;;;5034582;28;20030;-83
2023/04/09 09:29:09;;;;;;;12.73;9.38;;;13.00;74.00;;;;;;5001341;28;20101;-89
2023/04/09 09:31:49;;;;;;;12.80;10.00;;;13.00;73.90;;;;;;5001249;28;20508;-87
2023/04/09 09:34:16;;;;;;;11.45;8.48;;;13.10;73.90;;;;;;5033960;28;20037;-85
2023/04/09 09:36:43;;;;;;;11.05;8.70;;;13.20;73.80;;;;;;5018052;28;20429;-85
2023/04/09 09:39:11;;;;;;;11.98;9.07;;;13.30;73.90;;;;;;5032995;28;20116;-84
2023/04/09 09:41:38;;;;;;;11.68;8.90;;;13.40;73.80;;;;;;5017100;28;20021;-85
2023/04/09 09:44:06;;;;;;;12.15;8.95;;;13.40;73.70;;;;;;5033468;28;20025;-85
2023/04/09 09:46:35;;;;;;;10.65;8.43;;;13.40;73.60;;;;;;5016824;28;20017;-84
2023/04/09 09:49:01;;;;;;;11.73;9.43;;;13.60;73.70;;;;;;5033581;28;20060;-85
2023/04/09 09:51:30;;;;;;;12.07;9.40;;;13.60;73.60;;;;;;5000603;28;20471;-86
2023/04/09 09:53:56;;;;;;;11.73;8.68;;;13.70;73.50;;;;;;5016757;28;20075;-85
2023/04/09 09:56:31;;;;;;;12.30;9.32;;;13.70;73.40;;;;;;5016499;28;20040;-84
2023/04/09 09:59:30;;;;;;;11.50;9.13;;;13.80;73.40;;;;;;5033295;28;20438;-84
2023/04/09 10:02:03;;;;;;;11.43;8.70;;;13.90;73.50;;;;;;5005868;28;20520;-86
2023/04/09 10:04:31;;;;;;;10.05;7.88;;;14.00;73.30;;;;;;5033679;28;20112;-85
2023/04/09 10:06:58;;;;;;;10.65;8.32;;;14.10;73.30;;;;;;5033118;28;20075;-87
2023/04/09 10:09:26;;;;;;;12.10;9.20;;;14.10;73.30;;;;;;5016671;28;20108;-85
2023/04/09 10:11:54;;;;;;;10.70;8.35;;;14.20;73.30;;;;;;5033821;28;20029;-90
2023/04/09 10:14:21;;;;;;;12.15;9.20;;;14.30;73.20;;;;;;5032578;28;20072;-85
2023/04/09 10:16:47;;;;;;;11.05;8.48;;;14.30;73.10;;;;;;5032860;28;20037;-84
2023/04/09 10:19:13;;;;;;;11.52;8.55;;;14.50;73.20;;;;;;5000852;28;20030;-85
2023/04/09 10:22:03;;;;;;;11.05;8.65;;;14.50;73.10;;;;;;5016248;28;20033;-84
2023/04/09 10:24:30;;;;;;;10.45;8.40;;;14.60;73.20;;;;;;5017406;28;20030;-85
2023/04/09 10:27:07;;;;;;;11.23;8.73;;;14.70;73.10;;;;;;5033884;28;20033;-86
2023/04/09 10:29:33;;;;;;;10.30;8.15;;;14.80;73.10;;;;;;5033423;28;20033;-85
2023/04/09 10:32:05;;;;;;;11.75;8.63;;;14.90;73.10;;;;;;5018412;28;20443;-88
2023/04/09 10:34:35;;;;;;;12.40;9.52;;;14.90;73.00;;;;;;5036375;28;20060;-85
2023/04/09 10:37:01;;;;;;;9.90;8.25;;;15.00;73.00;;;;;;5019937;28;20057;-85
2023/04/09 10:39:30;;;;;;;10.63;8.43;;;15.10;72.90;;;;;;5019606;28;20120;-87
2023/04/09 10:41:58;;;;;;;11.35;8.77;;;15.20;72.90;;;;;;5035970;28;20036;-86
2023/04/09 10:44:26;;;;;;;10.75;8.30;;;15.20;72.80;;;;;;5019714;28;20025;-84
2023/04/09 10:46:55;;;;;;;11.57;8.82;;;15.30;73.10;;;;;;5036676;28;20029;-84
2023/04/09 10:49:22;;;;;;;11.23;8.70;;;15.40;72.70;;;;;;5037252;28;20108;-86
2023/04/09 10:52:05;;;;;;;10.27;8.15;;;15.50;72.70;;;;;;5023605;28;20095;-85
2023/04/09 10:54:34;;;;;;;11.02;7.72;;;15.50;72.60;;;;;;5040217;28;20037;-85
2023/04/09 10:57:06;;;;;;;10.38;7.97;;;15.70;72.50;;;;;;5040020;28;20389;-87
2023/04/09 10:59:40;;;;;;;9.93;7.95;;;15.70;72.40;;;;;;5023159;28;20029;-85
2023/04/09 11:02:08;;;;;;;9.98;7.93;;;15.80;72.40;;;;;;5040162;28;20036;-85
2023/04/09 11:05:00;;;;;;;10.95;7.88;;;15.90;72.30;;;;;;5023709;28;20485;-85
2023/04/09 11:07:29;;;;;;;9.32;7.45;;;15.90;72.30;;;;;;5023244;28;20029;-85
2023/04/09 11:09:54;;;;;;;9.82;7.72;;;16.00;72.10;;;;;;5039888;28;20037;-87
2023/04/09 11:12:20;;;;;;;9.27;7.35;;;16.10;72.10;;;;;;5023674;28;20043;-86
2023/04/09 11:14:46;;;;;;;10.05;7.50;;;16.20;72.10;;;;;;5007572;28;20458;-87
2023/04/09 11:17:12;;;;;;;8.85;7.50;;;16.30;72.10;;;;;;5023177;28;20037;-86
2023/04/09 11:19:38;;;;;;;9.10;7.43;;;16.30;72.00;;;;;;5007029;28;20047;-86
2023/04/09 11:22:05;;;;;;;9.65;7.43;;;16.40;71.90;;;;;;5023537;28;20086;-86
2023/04/09 11:24:41;;;;;;;9.07;6.93;;;16.50;71.90;;;;;;5023621;28;20035;-87
2023/04/09 11:27:07;;;;;;;8.68;6.30;;;16.50;71.80;;;;;;5023095;28;20086;-87
2023/04/09 11:29:34;;;;;;;8.65;6.63;;;16.60;71.80;;;;;;5023215;28;20079;-86
2023/04/09 11:32:01;;;;;;;7.72;5.85;;;16.70;71.80;;;;;;5039264;28;20029;-86
2023/04/09 11:34:33;;;;;;;7.53;6.00;;;16.70;71.70;;;;;;5039623;28;20037;-87
2023/04/09 11:37:05;;;;;;;8.50;6.65;;;16.80;71.70;;;;;;5007591;28;20036;-87
2023/04/09 11:39:35;;;;;;;7.80;5.93;;;16.80;71.60;;;;;;5024244;28;20033;-86
2023/04/09 11:42:01;;;;;;;7.70;5.32;;;16.90;71.60;;;;;;5023719;28;20545;-87
2023/04/09 11:44:27;;;;;;;8.35;5.75;;;16.90;71.40;;;;;;5039198;28;20033;-87
2023/04/09 11:46:53;;;;;;;7.90;5.45;;;17.00;71.40;;;;;;5007244;28;20031;-87
2023/04/09 11:49:19;;;;;;;7.05;5.43;;;17.00;71.30;;;;;;5023091;28;20025;-86
2023/04/09 11:51:44;;;;;;;7.55;5.57;;;17.10;71.30;;;;;;5022763;28;20036;-88
2023/04/09 11:54:11;;;;;;;7.20;5.25;;;17.10;71.30;;;;;;5005895;28;20033;-89
2023/04/09 11:56:37;;;;;;;6.38;5.10;;;17.20;71.40;;;;;;5022349;28;20051;-87
2023/04/09 11:59:03;;;;;;;6.65;5.30;;;17.20;71.30;;;;;;5022415;28;20025;-86
2023/04/09 12:01:32;;;;;;;7.93;5.93;;;17.20;71.30;;;;;;5038423;28;20029;-88
2023/04/09 12:03:59;;;;;;;7.28;5.60;;;17.30;71.40;;;;;;5038751;28;20173;-86
2023/04/09 12:06:25;;;;;;;6.70;5.22;;;17.30;71.40;;;;;;5038879;28;20035;-89
2023/04/09 12:08:58;;;;;;;7.97;5.95;;;17.30;71.30;;;;;;5039076;28;20029;-87
2023/04/09 12:11:31;;;;;;;6.47;5.10;;;17.40;71.40;;;;;;5022555;28;20057;-88
2023/04/09 12:14:03;;;;;;;6.93;5.05;;;17.50;71.50;;;;;;5038953;28;20035;-87
2023/04/09 12:16:31;;;;;;;7.28;5.03;;;17.40;71.50;;;;;;5022281;28;20188;-86
2023/04/09 12:19:01;;;;;;;6.45;5.05;;;17.50;71.60;;;;;;5038927;28;20044;-87
2023/04/09 12:21:47;;;;;;;6.95;5.35;;;17.50;71.50;;;;;;5022942;28;20106;-88
2023/04/09 12:24:14;;;;;;;7.07;5.50;;;17.60;71.60;;;;;;5022202;28;20040;-87
2023/04/09 12:26:40;;;;;;;7.32;5.72;;;17.60;71.60;;;;;;5056448;28;20103;-89
2023/04/09 12:29:05;;;;;;;7.07;5.43;;;17.60;71.60;;;;;;5005700;28;20056;-89
2023/04/09 12:31:31;;;;;;;7.28;5.75;;;17.70;71.70;;;;;;5022254;28;20119;-89
2023/04/09 12:33:57;;;;;;;8.07;5.88;;;17.70;71.70;;;;;;5038594;28;20061;-88
2023/04/09 12:36:23;;;;;;;7.85;5.78;;;17.70;71.70;;;;;;5022095;28;20539;-87
2023/04/09 12:38:49;;;;;;;8.02;5.88;;;17.70;71.70;;;;;;5006464;28;20100;-87
2023/04/09 12:41:15;;;;;;;7.25;5.85;;;17.80;71.80;;;;;;5039184;28;20025;-87